Time;durP1;ratioP1;P1;durP2;ratioP2;P2;SDS_P1;SDS_P2;PMS_P1;PMS_P2;Temp;Humidity;BMP_temperature;BMP_pressure;BME280_temperature;BME280_humidity;BME280_pressure;Samples;Min_cycle;Max_cycle;Signal;HPM_P1;HPM_P2
2023/10/02 00:00:19;;;;;;;;;;;;;;;17.78;43.62;101352.06;4933836;28;100089;-55
2023/10/02 00:02:47;;;;;;;;;;;;;;;17.75;43.68;101351.84;4905582;28;99269;-55
2023/10/02 00:05:40;;;;;;;;;;;;;;;17.71;43.69;101348.84;4919330;28;98047;-62
2023/10/02 00:08:00;;;;;;;;;;;;;;;17.66;43.50;101357.09;4907441;28;98201;-55
2023/10/02 00:10:29;;;;;;;;;;;;;;;17.63;43.73;101353.03;4905666;28;98536;-55
2023/10/02 00:12:59;;;;;;;;;;;;;;;17.59;43.67;101349.28;4937798;28;98339;-55
2023/10/02 00:15:26;;;;;;;;;;;;;;;17.56;43.53;101355.31;4937831;28;98364;-63
2023/10/02 00:17:57;;;;;;;;;;;;;;;17.54;43.46;101351.28;4917000;28;98411;-61
2023/10/02 00:20:23;;;;;;;;;;;;;;;17.52;43.55;101348.81;4918894;28;99566;-55
2023/10/02 00:22:50;;;;;;;;;;;;;;;17.49;43.65;101349.44;4916168;28;104397;-55
2023/10/02 00:25:19;;;;;;;;;;;;;;;17.48;43.75;101352.44;4932412;28;98425;-56
2023/10/02 00:27:46;;;;;;;;;;;;;;;17.46;43.46;101344.56;4950852;28;99758;-61
2023/10/02 00:30:13;;;;;;;;;;;;;;;17.44;43.50;101344.03;4925019;28;98539;-55
2023/10/02 00:32:41;;;;;;;;;;;;;;;17.42;43.54;101348.97;4906531;28;98844;-55
2023/10/02 00:35:11;;;;;;;;;;;;;;;17.41;43.54;101347.38;4935050;28;99804;-62
2023/10/02 00:37:43;;;;;;;;;;;;;;;17.38;43.80;101346.03;4904661;28;98422;-55
2023/10/02 00:40:23;;;;;;;;;;;;;;;17.35;43.45;101341.16;4928620;28;98635;-62
2023/10/02 00:42:55;;;;;;;;;;;;;;;17.31;43.64;101344.75;4884518;28;98460;-62
2023/10/02 00:45:22;;;;;;;;;;;;;;;17.28;43.59;101337.97;4905300;28;98579;-62
2023/10/02 00:47:52;;;;;;;;;;;;;;;17.25;43.74;101338.56;4881373;28;100596;-62
2023/10/02 00:50:23;;;;;;;;;;;;;;;17.20;43.57;101335.88;4918780;28;100382;-62
2023/10/02 00:52:55;;;;;;;;;;;;;;;17.16;43.69;101327.47;4916503;28;98214;-55
2023/10/02 00:55:24;;;;;;;;;;;;;;;17.12;43.64;101326.44;4952887;28;98794;-56
2023/10/02 00:57:56;;;;;;;;;;;;;;;17.08;43.75;101333.56;4922811;28;98220;-61
2023/10/02 01:00:37;;;;;;;;;;;;;;;17.06;43.61;101332.25;4907607;28;98255;-62
2023/10/02 01:03:08;;;;;;;;;;;;;;;17.03;43.66;101330.09;4919563;28;98731;-61
2023/10/02 01:05:50;;;;;;;;;;;;;;;16.99;43.58;101332.59;4887049;28;98109;-59
2023/10/02 01:11:04;;;;;;;;;;;;;;;16.92;43.65;101332.94;4921499;28;98395;-61
2023/10/02 01:13:35;;;;;;;;;;;;;;;16.90;43.73;101339.78;4920969;28;98302;-55
2023/10/02 01:16:08;;;;;;;;;;;;;;;16.87;43.58;101343.06;4920011;28;101916;-55
2023/10/02 01:18:38;;;;;;;;;;;;;;;16.83;43.71;101337.38;4919083;28;99364;-62
2023/10/02 01:21:11;;;;;;;;;;;;;;;16.80;43.78;101343.41;4921148;28;98463;-56
2023/10/02 01:24:08;;;;;;;;;;;;;;;16.76;43.77;101345.06;4919457;28;98838;-56
2023/10/02 01:26:40;;;;;;;;;;;;;;;16.73;43.72;101344.81;4927611;28;98715;-62
2023/10/02 01:29:07;;;;;;;;;;;;;;;16.69;43.79;101350.81;4918143;28;98192;-55
2023/10/02 01:31:44;;;;;;;;;;;;;;;16.65;43.79;101347.06;4906715;28;98618;-62
2023/10/02 01:34:26;;;;;;;;;;;;;;;16.62;43.72;101349.53;4903669;28;98945;-55
2023/10/02 01:36:52;;;;;;;;;;;;;;;16.56;43.89;101354.22;4923090;28;100441;-62
2023/10/02 01:39:21;;;;;;;;;;;;;;;16.52;43.80;101345.00;4883481;28;98254;-56
2023/10/02 01:41:52;;;;;;;;;;;;;;;16.48;43.75;101345.88;4918619;28;98301;-55
2023/10/02 01:44:22;;;;;;;;;;;;;;;16.44;43.69;101342.91;4905426;28;98002;-55
2023/10/02 01:46:52;;;;;;;;;;;;;;;16.39;43.80;101346.47;4903033;28;99673;-62
2023/10/02 01:49:25;;;;;;;;;;;;;;;16.36;43.93;101347.03;4933876;28;98444;-56
2023/10/02 01:51:55;;;;;;;;;;;;;;;16.31;43.75;101341.66;4895183;28;98526;-62
2023/10/02 01:54:22;;;;;;;;;;;;;;;16.28;43.85;101346.84;4900149;28;98463;-56
2023/10/02 01:56:49;;;;;;;;;;;;;;;16.22;43.88;101337.91;4919195;28;99927;-62
2023/10/02 01:59:18;;;;;;;;;;;;;;;16.18;43.97;101340.38;4903518;28;99602;-56
2023/10/02 02:01:51;;;;;;;;;;;;;;;16.14;43.89;101333.88;4931434;28;98505;-62
2023/10/02 02:04:21;;;;;;;;;;;;;;;16.09;43.93;101330.41;4891593;28;99748;-56
2023/10/02 02:06:57;;;;;;;;;;;;;;;16.05;43.89;101332.88;4914927;28;99522;-56
2023/10/02 02:09:25;;;;;;;;;;;;;;;16.01;43.71;101331.81;4883941;28;98238;-55
2023/10/02 02:12:10;;;;;;;;;;;;;;;15.99;43.81;101331.28;4928809;28;99347;-62
2023/10/02 02:14:52;;;;;;;;;;;;;;;15.96;43.68;101345.44;4943547;28;98280;-62
2023/10/02 02:17:22;;;;;;;;;;;;;;;15.94;43.81;101342.19;4945190;28;97949;-61
2023/10/02 02:19:48;;;;;;;;;;;;;;;15.91;43.89;101332.69;4924971;28;99484;-62
2023/10/02 02:22:25;;;;;;;;;;;;;;;15.89;43.85;101340.31;4924714;28;106285;-56
2023/10/02 02:24:58;;;;;;;;;;;;;;;15.85;43.96;101328.38;4938681;28;98736;-56
2023/10/02 02:27:24;;;;;;;;;;;;;;;15.83;44.03;101338.72;4921534;28;98336;-56
2023/10/02 02:29:58;;;;;;;;;;;;;;;15.79;43.85;101328.69;4909390;28;98181;-54
2023/10/02 02:32:44;;;;;;;;;;;;;;;15.75;43.94;101323.00;4942463;28;98370;-56
2023/10/02 02:35:14;;;;;;;;;;;;;;;15.72;44.09;101323.59;4943266;28;100158;-62
2023/10/02 02:37:41;;;;;;;;;;;;;;;15.69;44.10;101333.09;4946108;28;98356;-62
2023/10/02 02:40:22;;;;;;;;;;;;;;;15.67;44.04;101338.00;4938087;28;98614;-62
2023/10/02 02:42:51;;;;;;;;;;;;;;;15.65;44.02;101332.03;4927802;28;98609;-56
2023/10/02 02:45:29;;;;;;;;;;;;;;;15.63;43.93;101333.38;4928854;28;99249;-62
2023/10/02 02:47:57;;;;;;;;;;;;;;;15.60;43.89;101336.63;4924268;28;98578;-62
2023/10/02 02:50:28;;;;;;;;;;;;;;;15.57;44.13;101332.59;4935185;28;98082;-56
2023/10/02 02:55:39;;;;;;;;;;;;;;;15.52;44.06;101337.22;4941926;28;98651;-62
2023/10/02 02:58:07;;;;;;;;;;;;;;;15.49;43.84;101340.53;4939626;28;99095;-62
2023/10/02 03:00:35;;;;;;;;;;;;;;;15.46;44.06;101329.09;4907821;28;99290;-56
2023/10/02 03:03:02;;;;;;;;;;;;;;;15.44;43.91;101331.31;4920329;28;99678;-56
2023/10/02 03:05:52;;;;;;;;;;;;;;;15.39;43.88;101325.06;4926606;28;99314;-56
2023/10/02 03:08:15;;;;;;;;;;;;;;;15.34;43.91;101320.47;4938878;28;98490;-56
2023/10/02 03:10:46;;;;;;;;;;;;;;;15.33;44.06;101328.91;4939089;28;98579;-56
2023/10/02 03:13:18;;;;;;;;;;;;;;;15.30;43.93;101324.03;4924877;28;99149;-62
2023/10/02 03:15:47;;;;;;;;;;;;;;;15.27;44.06;101324.59;4923639;28;101349;-62
2023/10/02 03:18:31;;;;;;;;;;;;;;;15.25;44.09;101324.88;4941265;28;99497;-62
2023/10/02 03:21:06;;;;;;;;;;;;;;;15.23;44.21;101322.41;4904872;28;98939;-56
2023/10/02 03:23:33;;;;;;;;;;;;;;;15.22;44.08;101318.09;4938799;28;98297;-56
2023/10/02 03:26:07;;;;;;;;;;;;;;;15.19;43.96;101312.38;4936256;28;98221;-56
2023/10/02 03:28:33;;;;;;;;;;;;;;;15.17;44.16;101315.41;4905582;28;100148;-61
2023/10/02 03:31:00;;;;;;;;;;;;;;;15.16;44.07;101312.94;4933967;28;98289;-55
2023/10/02 03:33:31;;;;;;;;;;;;;;;15.14;44.25;101321.38;4926504;28;98284;-62
2023/10/02 03:36:15;;;;;;;;;;;;;;;15.13;44.29;101321.63;4943303;28;99827;-56
2023/10/02 03:38:48;;;;;;;;;;;;;;;15.12;43.96;101318.09;4930082;28;98818;-62
2023/10/02 03:41:16;;;;;;;;;;;;;;;15.10;43.99;101319.50;4942604;28;99446;-56
2023/10/02 03:43:46;;;;;;;;;;;;;;;15.08;43.87;101314.31;4925749;28;98391;-62
2023/10/02 03:46:22;;;;;;;;;;;;;;;15.07;44.02;101317.31;4942010;28;98434;-62
2023/10/02 03:48:58;;;;;;;;;;;;;;;15.04;44.16;101321.41;4912337;28;100304;-61
2023/10/02 03:51:40;;;;;;;;;;;;;;;15.02;43.97;101320.06;4946681;28;98511;-55
2023/10/02 03:54:17;;;;;;;;;;;;;;;15.01;43.99;101327.38;4942735;28;98813;-62
2023/10/02 03:57:02;;;;;;;;;;;;;;;14.98;44.26;101328.75;4929315;28;98325;-56
2023/10/02 03:59:32;;;;;;;;;;;;;;;14.96;44.17;101332.81;4936917;28;100311;-62
2023/10/02 04:04:46;;;;;;;;;;;;;;;14.91;44.06;101330.13;4943610;28;99005;-56
2023/10/02 04:07:12;;;;;;;;;;;;;;;14.89;44.36;101326.88;4956465;28;97942;-62
2023/10/02 04:09:39;;;;;;;;;;;;;;;14.85;44.22;101323.88;4926300;28;99220;-60
2023/10/02 04:12:07;;;;;;;;;;;;;;;14.81;44.20;101314.66;4928464;28;100353;-56
2023/10/02 04:14:33;;;;;;;;;;;;;;;14.77;44.41;101312.78;4914456;28;99636;-56
2023/10/02 04:17:09;;;;;;;;;;;;;;;14.72;44.20;101313.59;4903963;28;99745;-56
2023/10/02 04:19:39;;;;;;;;;;;;;;;14.69;44.04;101314.97;4929216;28;100182;-56
2023/10/02 04:22:06;;;;;;;;;;;;;;;14.67;44.10;101313.63;4925944;28;99107;-56
2023/10/02 04:24:51;;;;;;;;;;;;;;;14.65;44.36;101308.47;4941830;28;98214;-61
2023/10/02 04:27:24;;;;;;;;;;;;;;;14.64;44.34;101319.59;4944066;28;98862;-62
2023/10/02 04:32:39;;;;;;;;;;;;;;;14.59;44.25;101314.19;4927848;28;98457;-62
2023/10/02 04:35:40;;;;;;;;;;;;;;;14.57;44.31;101310.91;4904805;28;98754;-62
2023/10/02 04:37:52;;;;;;;;;;;;;;;14.55;44.14;101313.91;4929782;28;98315;-62
2023/10/02 04:40:23;;;;;;;;;;;;;;;14.52;44.06;101306.31;4939803;28;99380;-56
2023/10/02 04:42:58;;;;;;;;;;;;;;;14.50;44.44;101316.63;4931114;28;97981;-55
2023/10/02 04:45:34;;;;;;;;;;;;;;;14.45;44.42;101303.84;4937298;28;98339;-56
2023/10/02 04:48:00;;;;;;;;;;;;;;;14.44;44.41;101306.84;4956982;28;98744;-55
2023/10/02 04:52:56;;;;;;;;;;;;;;;14.38;44.32;101303.34;4940026;28;98575;-62
2023/10/02 04:55:27;;;;;;;;;;;;;;;14.36;44.11;101304.69;4923674;28;99178;-62
2023/10/02 04:57:55;;;;;;;;;;;;;;;14.35;44.14;101305.78;4942171;28;98376;-56
2023/10/02 05:00:32;;;;;;;;;;;;;;;14.34;44.34;101299.50;4905209;28;99216;-56
2023/10/02 05:03:18;;;;;;;;;;;;;;;14.34;44.46;101304.13;4944142;28;100037;-62
2023/10/02 05:05:48;;;;;;;;;;;;;;;14.31;44.17;101305.50;4943187;28;98299;-56
2023/10/02 05:08:19;;;;;;;;;;;;;;;14.30;44.58;101305.75;4941792;28;99522;-62
2023/10/02 05:10:50;;;;;;;;;;;;;;;14.28;44.13;101299.81;4925089;28;98478;-62
2023/10/02 05:13:45;;;;;;;;;;;;;;;14.25;44.13;101306.56;4920657;28;98476;-61
2023/10/02 05:16:12;;;;;;;;;;;;;;;14.24;44.21;101305.75;4940202;28;100017;-55
2023/10/02 05:18:47;;;;;;;;;;;;;;;14.24;44.54;101316.59;4903207;28;98458;-62
2023/10/02 05:21:16;;;;;;;;;;;;;;;14.25;44.48;101309.28;4918966;28;98857;-62
2023/10/02 05:24:00;;;;;;;;;;;;;;;14.25;44.41;101312.00;4923428;28;98928;-55
2023/10/02 05:26:32;;;;;;;;;;;;;;;14.24;44.38;101316.59;4934607;28;98488;-56
2023/10/02 05:28:59;;;;;;;;;;;;;;;14.24;44.22;101308.47;4940422;28;98055;-62
2023/10/02 05:31:27;;;;;;;;;;;;;;;14.24;44.21;101313.91;4939400;28;98681;-56
2023/10/02 05:33:54;;;;;;;;;;;;;;;14.24;44.05;101307.66;4953552;28;99457;-55
2023/10/02 05:36:22;;;;;;;;;;;;;;;14.24;44.08;101308.47;4917149;28;98866;-62
2023/10/02 05:39:28;;;;;;;;;;;;;;;14.24;44.40;101313.91;4938349;28;99970;-55
2023/10/02 05:41:46;;;;;;;;;;;;;;;14.24;44.48;101311.19;4939404;28;98561;-62
2023/10/02 05:44:23;;;;;;;;;;;;;;;14.26;44.44;101316.31;4926161;28;99519;-62
2023/10/02 05:46:55;;;;;;;;;;;;;;;14.28;44.41;101321.50;4922725;28;99561;-56
2023/10/02 05:49:23;;;;;;;;;;;;;;;14.32;44.04;101326.09;4940352;28;99372;-56
2023/10/02 05:51:55;;;;;;;;;;;;;;;14.37;44.43;101322.56;4923503;28;99741;-56
2023/10/02 05:54:29;;;;;;;;;;;;;;;14.42;44.41;101325.28;4935457;28;98479;-56
2023/10/02 05:57:14;;;;;;;;;;;;;;;14.44;44.26;101323.13;4923465;28;98361;-62
2023/10/02 05:59:44;;;;;;;;;;;;;;;14.45;43.90;101320.13;4923056;28;98631;-56
2023/10/02 06:02:14;;;;;;;;;;;;;;;14.46;44.22;101319.06;4920471;28;98563;-56
2023/10/02 06:04:47;;;;;;;;;;;;;;;14.46;44.24;101313.63;4920720;28;98333;-62
2023/10/02 06:07:19;;;;;;;;;;;;;;;14.49;44.36;101309.56;4919410;28;98239;-56
2023/10/02 06:09:49;;;;;;;;;;;;;;;14.51;43.90;101312.84;4923467;28;98225;-56
2023/10/02 06:12:15;;;;;;;;;;;;;;;14.54;43.92;101312.31;4926768;28;99152;-62
2023/10/02 06:14:44;;;;;;;;;;;;;;;14.59;44.00;101322.31;4912476;28;98641;-62
2023/10/02 06:17:16;;;;;;;;;;;;;;;14.62;44.27;101319.88;4892426;28;99501;-56
2023/10/02 06:19:45;;;;;;;;;;;;;;;14.67;43.92;101325.28;4920994;28;98022;-62
2023/10/02 06:22:14;;;;;;;;;;;;;;;14.72;44.24;101317.13;4877865;28;99753;-56
2023/10/02 06:24:42;;;;;;;;;;;;;;;14.80;43.96;101313.06;4904334;28;97990;-55
2023/10/02 06:27:16;;;;;;;;;;;;;;;14.85;44.13;101312.22;4876777;28;98254;-55
2023/10/02 06:29:47;;;;;;;;;;;;;;;14.90;44.03;101310.31;4898843;28;97995;-62
2023/10/02 06:32:19;;;;;;;;;;;;;;;14.97;44.02;101316.28;4903167;28;100126;-62
2023/10/02 06:34:47;;;;;;;;;;;;;;;15.03;43.96;101313.53;4911224;28;98251;-62
2023/10/02 06:37:17;;;;;;;;;;;;;;;15.09;43.97;101315.97;4926810;28;98335;-56
2023/10/02 06:40:02;;;;;;;;;;;;;;;15.17;43.73;101307.25;4879038;28;98331;-56
2023/10/02 06:42:29;;;;;;;;;;;;;;;15.25;43.82;101318.59;4911765;28;98712;-62
2023/10/02 06:44:55;;;;;;;;;;;;;;;15.34;44.06;101319.66;4928650;28;98372;-62
2023/10/02 06:47:28;;;;;;;;;;;;;;;15.40;43.65;101323.97;4926484;28;98254;-56
2023/10/02 06:50:23;;;;;;;;;;;;;;;15.45;43.74;101324.78;4924412;28;99047;-55
2023/10/02 06:52:49;;;;;;;;;;;;;;;15.51;43.86;101322.84;4902458;28;98308;-55
2023/10/02 06:55:17;;;;;;;;;;;;;;;15.58;43.90;101319.81;4911361;28;98302;-55
2023/10/02 06:57:49;;;;;;;;;;;;;;;15.63;43.84;101312.44;4924582;28;100566;-62
2023/10/02 07:00:19;;;;;;;;;;;;;;;15.71;43.68;101317.31;4913107;28;98202;-61
2023/10/02 07:02:56;;;;;;;;;;;;;;;15.79;44.04;101317.81;4922372;28;98740;-61
2023/10/02 07:05:32;;;;;;;;;;;;;;;15.86;43.68;101313.69;4909866;28;98126;-61
2023/10/02 07:08:26;;;;;;;;;;;;;;;15.93;43.83;101313.38;4911544;28;100208;-62
2023/10/02 07:10:53;;;;;;;;;;;;;;;16.02;43.68;101314.41;4913830;28;99519;-62
2023/10/02 07:13:20;;;;;;;;;;;;;;;16.12;43.94;101319.78;4933700;28;100014;-56
2023/10/02 07:15:56;;;;;;;;;;;;;;;16.19;44.07;101317.53;4914709;28;98520;-56
2023/10/02 07:18:37;;;;;;;;;;;;;;;16.28;43.90;101317.75;4898511;28;98600;-62
2023/10/02 07:21:09;;;;;;;;;;;;;;;16.41;44.26;101325.22;4900724;28;99765;-55
2023/10/02 07:23:37;;;;;;;;;;;;;;;16.52;43.84;101319.72;4914568;28;99505;-55
2023/10/02 07:26:19;;;;;;;;;;;;;;;16.63;43.66;101323.97;4900023;28;98488;-55
2023/10/02 07:28:51;;;;;;;;;;;;;;;16.76;43.67;101323.31;4928044;28;98701;-61
2023/10/02 07:31:21;;;;;;;;;;;;;;;16.90;44.17;101328.88;4917648;28;98844;-61
2023/10/02 07:33:47;;;;;;;;;;;;;;;17.03;43.59;101320.00;4876604;28;98009;-56
2023/10/02 07:36:16;;;;;;;;;;;;;;;17.16;43.51;101327.47;4915903;28;100126;-56
2023/10/02 07:38:43;;;;;;;;;;;;;;;17.30;43.48;101335.78;4911528;28;98347;-56
2023/10/02 07:41:23;;;;;;;;;;;;;;;17.47;43.46;101332.56;4916679;28;98190;-56
2023/10/02 07:43:52;;;;;;;;;;;;;;;17.64;43.51;101327.44;4914503;28;98396;-55
2023/10/02 07:46:21;;;;;;;;;;;;;;;17.80;43.70;101330.78;4890866;28;99612;-56
2023/10/02 07:49:00;;;;;;;;;;;;;;;17.98;43.44;101329.13;4893027;28;98243;-62
2023/10/02 07:51:35;;;;;;;;;;;;;;;18.19;43.24;101328.81;4942336;28;98575;-55
2023/10/02 07:54:02;;;;;;;;;;;;;;;18.38;43.19;101322.19;4913274;28;98669;-62
2023/10/02 07:56:29;;;;;;;;;;;;;;;18.66;42.71;101322.25;4891258;28;99226;-62
2023/10/02 07:58:55;;;;;;;;;;;;;;;19.28;42.47;101317.25;4882326;28;98652;-62
2023/10/02 08:01:33;;;;;;;;;;;;;;;19.52;42.48;101317.00;4925174;28;99416;-56
2023/10/02 08:04:01;;;;;;;;;;;;;;;19.81;42.33;101316.69;4916460;28;98855;-62
2023/10/02 08:06:33;;;;;;;;;;;;;;;21.00;40.81;101312.59;4912367;28;98718;-55
2023/10/02 08:11:50;;;;;;;;;;;;;;;21.81;41.03;101317.56;4915917;28;98123;-62
2023/10/02 08:14:40;;;;;;;;;;;;;;;22.38;40.61;101311.91;4936174;28;102204;-63
2023/10/02 08:17:18;;;;;;;;;;;;;;;23.05;40.16;101310.38;4937455;28;99453;-62
2023/10/02 08:19:54;;;;;;;;;;;;;;;25.16;38.02;101310.56;4922110;28;98238;-62
2023/10/02 08:22:35;;;;;;;;;;;;;;;26.67;37.68;101318.44;4923977;28;98901;-56
2023/10/02 08:25:12;;;;;;;;;;;;;;;30.21;34.85;101330.50;4921776;28;100387;-56
2023/10/02 08:27:57;;;;;;;;;;;;;;;33.09;33.16;101338.75;4919776;28;98327;-57
2023/10/02 08:30:36;;;;;;;;;;;;;;;34.80;32.40;101336.38;4948583;28;100300;-56
2023/10/02 08:33:06;;;;;;;;;;;;;;;36.08;32.05;101334.19;4922959;28;99947;-62
2023/10/02 08:35:40;;;;;;;;;;;;;;;36.92;31.75;101322.03;4941555;28;98933;-57
2023/10/02 08:38:21;;;;;;;;;;;;;;;37.90;31.99;101314.13;4904283;28;98923;-57
2023/10/02 08:40:57;;;;;;;;;;;;;;;37.94;32.43;101306.41;4921320;28;99190;-57
2023/10/02 08:43:27;;;;;;;;;;;;;;;37.78;33.35;101307.13;4944120;28;98194;-57
2023/10/02 08:45:53;;;;;;;;;;;;;;;39.96;31.79;101303.47;4936315;28;98964;-63
2023/10/02 08:48:20;;;;;;;;;;;;;;;41.05;31.36;101294.59;4961249;28;98404;-57
2023/10/02 08:50:47;;;;;;;;;;;;;;;41.63;31.24;101290.44;4953355;28;98345;-57
2023/10/02 08:53:20;;;;;;;;;;;;;;;41.78;31.25;101287.81;4955071;28;98355;-63
2023/10/02 08:56:24;;;;;;;;;;;;;;;42.30;30.11;101289.03;4955578;28;98167;-63
2023/10/02 08:59:15;;;;;;;;;;;;;;;41.41;31.51;101276.34;4951288;28;98632;-63
2023/10/02 09:01:37;;;;;;;;;;;;;;;38.67;32.88;101264.03;4959854;28;98077;-63
2023/10/02 09:06:58;;;;;;;;;;;;;;;39.12;32.92;101249.16;4954693;28;98845;-63
2023/10/02 09:11:56;;;;;;;;;;;;;;;37.12;35.67;101240.63;4965462;27;99010;-63
2023/10/02 09:14:24;;;;;;;;;;;;;;;38.82;34.33;101241.94;4941574;28;99563;-57
2023/10/02 09:17:07;;;;;;;;;;;;;;;40.99;31.90;101248.38;4922855;28;99711;-57
2023/10/02 09:19:34;;;;;;;;;;;;;;;41.55;31.16;101256.00;4940702;28;99889;-63
2023/10/02 09:22:06;;;;;;;;;;;;;;;40.55;32.14;101244.72;4940604;28;99773;-56
2023/10/02 09:24:36;;;;;;;;;;;;;;;38.54;33.38;101233.00;4953238;28;98661;-57
2023/10/02 09:29:49;;;;;;;;;;;;;;;40.19;32.20;101224.13;4950750;28;98127;-62
2023/10/02 09:32:25;;;;;;;;;;;;;;;38.83;32.75;101221.78;4937474;28;98678;-63
2023/10/02 09:35:10;;;;;;;;;;;;;;;38.96;30.78;101219.81;4939834;28;99914;-63
2023/10/02 09:37:37;;;;;;;;;;;;;;;38.07;33.56;101217.25;4967632;27;98406;-63
2023/10/02 09:40:04;;;;;;;;;;;;;;;37.14;34.13;101203.66;4967018;27;98278;-62
2023/10/02 09:42:33;;;;;;;;;;;;;;;36.36;34.55;101198.31;4967189;27;98579;-63
2023/10/02 09:45:08;;;;;;;;;;;;;;;35.76;35.32;101195.22;4941324;28;98241;-62
2023/10/02 09:47:34;;;;;;;;;;;;;;;35.35;35.88;101182.16;4953299;28;98625;-56
2023/10/02 09:50:12;;;;;;;;;;;;;;;35.07;35.52;101190.94;4967660;27;98417;-62
2023/10/02 09:52:58;;;;;;;;;;;;;;;34.84;35.96;101191.56;4942034;28;99885;-56
2023/10/02 09:56:00;;;;;;;;;;;;;;;34.62;35.95;101188.19;4943773;28;98445;-57
2023/10/02 09:58:34;;;;;;;;;;;;;;;34.44;36.30;101185.56;4967552;27;104838;-56
2023/10/02 10:03:57;;;;;;;;;;;;;;;34.24;35.89;101185.34;4954044;28;99384;-63
2023/10/02 10:06:29;;;;;;;;;;;;;;;34.18;36.26;101187.78;4954487;28;98080;-56
2023/10/02 10:11:43;;;;;;;;;;;;;;;34.16;36.24;101187.41;4958831;28;98689;-63
2023/10/02 10:14:37;;;;;;;;;;;;;;;34.17;36.58;101188.19;4958381;28;98438;-63
2023/10/02 10:17:21;;;;;;;;;;;;;;;34.14;36.47;101194.63;4957876;28;98289;-57
2023/10/02 10:22:50;;;;;;;;;;;;;;;34.17;36.41;101191.78;4952454;28;98430;-59
2023/10/02 10:25:22;;;;;;;;;;;;;;;34.06;36.62;101187.50;4952323;28;98362;-56
2023/10/02 10:27:54;;;;;;;;;;;;;;;33.93;36.55;101192.75;4955685;28;98554;-62
2023/10/02 10:32:47;;;;;;;;;;;;;;;33.85;36.59;101182.84;4950402;28;100451;-62
2023/10/02 10:35:33;;;;;;;;;;;;;;;33.84;36.55;101176.44;4934051;28;98504;-62
2023/10/02 10:37:59;;;;;;;;;;;;;;;33.94;36.74;101183.94;4940679;28;100052;-56
2023/10/02 10:40:43;;;;;;;;;;;;;;;33.99;36.62;101185.53;4954164;27;127035;-56
2023/10/02 10:43:12;;;;;;;;;;;;;;;34.16;36.50;101186.63;4934979;28;98841;-56
2023/10/02 10:45:39;;;;;;;;;;;;;;;34.19;36.41;101180.19;4957401;28;99931;-62
2023/10/02 10:48:18;;;;;;;;;;;;;;;34.18;36.65;101182.19;4938533;28;98464;-56
2023/10/02 10:50:56;;;;;;;;;;;;;;;34.08;36.59;101179.50;4883875;28;104978;-56
2023/10/02 10:53:26;;;;;;;;;;;;;;;34.18;36.68;101175.81;4952236;28;99777;-63
2023/10/02 10:55:55;;;;;;;;;;;;;;;34.20;36.58;101167.81;4938647;28;98503;-63
2023/10/02 10:58:50;;;;;;;;;;;;;;;34.07;36.98;101167.50;4954334;28;98301;-62
2023/10/02 11:01:21;;;;;;;;;;;;;;;34.07;36.76;101164.69;4948027;28;102087;-56
2023/10/02 11:03:56;;;;;;;;;;;;;;;34.30;36.64;101163.31;4947443;28;98236;-62
2023/10/02 11:06:22;;;;;;;;;;;;;;;34.45;36.25;101171.16;4937290;28;98426;-62
2023/10/02 11:09:13;;;;;;;;;;;;;;;34.71;36.29;101157.75;4932951;28;98168;-62
2023/10/02 11:11:49;;;;;;;;;;;;;;;34.88;35.98;101156.72;4950423;28;98441;-56
2023/10/02 11:14:21;;;;;;;;;;;;;;;35.09;35.94;101152.09;4935418;28;99617;-56
2023/10/02 11:16:54;;;;;;;;;;;;;;;35.23;36.12;101151.13;4942946;28;98997;-56
2023/10/02 11:19:23;;;;;;;;;;;;;;;35.45;35.73;101154.41;4955488;28;98129;-62
2023/10/02 11:22:15;;;;;;;;;;;;;;;35.51;35.96;101147.94;4927294;28;102797;-63
2023/10/02 11:24:42;;;;;;;;;;;;;;;35.48;35.86;101136.75;4928190;28;99462;-62
2023/10/02 11:27:12;;;;;;;;;;;;;;;35.35;36.10;101145.75;4948023;28;98507;-62
2023/10/02 11:29:42;;;;;;;;;;;;;;;35.40;36.01;101145.25;4927065;28;99912;-62
2023/10/02 11:32:45;;;;;;;;;;;;;;;35.48;36.01;101133.97;4922759;28;98408;-56
2023/10/02 11:35:04;;;;;;;;;;;;;;;35.62;35.93;101122.56;4925642;28;98145;-56
2023/10/02 11:37:31;;;;;;;;;;;;;;;35.77;35.77;101117.53;4930678;28;98302;-56
2023/10/02 11:39:58;;;;;;;;;;;;;;;35.82;35.48;101120.63;4916418;28;98400;-62
2023/10/02 11:42:24;;;;;;;;;;;;;;;35.90;35.67;101113.69;4916820;28;98880;-56
2023/10/02 11:44:50;;;;;;;;;;;;;;;36.23;35.70;101113.16;4937371;28;99708;-56
2023/10/02 11:47:17;;;;;;;;;;;;;;;36.24;35.39;101114.75;4939797;28;110719;-56
2023/10/02 11:49:43;;;;;;;;;;;;;;;35.99;35.98;101106.78;4898831;28;99575;-62
2023/10/02 11:52:09;;;;;;;;;;;;;;;35.49;36.32;101099.13;4935672;28;101164;-56
2023/10/02 11:54:41;;;;;;;;;;;;;;;35.00;36.58;101102.22;4909413;28;98342;-62
2023/10/02 11:57:12;;;;;;;;;;;;;;;34.57;37.11;101105.50;4937875;28;98156;-56
2023/10/02 11:59:41;;;;;;;;;;;;;;;34.34;37.37;101102.53;4941247;28;98242;-62
2023/10/02 12:02:11;;;;;;;;;;;;;;;34.25;37.29;101100.22;4925943;28;100015;-58
2023/10/02 12:04:38;;;;;;;;;;;;;;;34.30;37.15;101098.97;4924786;28;98303;-62
2023/10/02 12:07:05;;;;;;;;;;;;;;;34.34;37.04;101094.94;4907512;28;101945;-62
2023/10/02 12:09:33;;;;;;;;;;;;;;;34.19;37.19;101091.50;4914749;28;98522;-56
2023/10/02 12:11:59;;;;;;;;;;;;;;;34.10;37.21;101093.97;4935675;28;101723;-56
2023/10/02 12:14:29;;;;;;;;;;;;;;;34.02;37.16;101089.66;4935870;28;98796;-56
2023/10/02 12:16:57;;;;;;;;;;;;;;;33.86;37.00;101084.59;4941140;28;98734;-61
2023/10/02 12:19:24;;;;;;;;;;;;;;;33.70;37.21;101089.91;4902426;28;99901;-62
2023/10/02 12:21:51;;;;;;;;;;;;;;;33.47;37.53;101085.69;4922413;28;105099;-61
2023/10/02 12:24:17;;;;;;;;;;;;;;;33.03;37.40;101080.75;4941823;28;98722;-56
2023/10/02 12:26:43;;;;;;;;;;;;;;;32.85;37.64;101089.16;4919369;28;99828;-62
2023/10/02 12:29:10;;;;;;;;;;;;;;;32.64;37.87;101076.09;4937421;28;99240;-62
2023/10/02 12:31:36;;;;;;;;;;;;;;;32.49;37.96;101078.13;4933728;28;98439;-62
2023/10/02 12:34:03;;;;;;;;;;;;;;;32.34;38.45;101070.97;4940317;27;99840;-62
2023/10/02 12:36:29;;;;;;;;;;;;;;;32.37;38.19;101072.16;4953727;28;99872;-62
2023/10/02 12:38:57;;;;;;;;;;;;;;;32.38;37.70;101066.16;4950130;28;99329;-56
2023/10/02 12:41:24;;;;;;;;;;;;;;;32.41;38.25;101073.75;4917375;28;100466;-55
2023/10/02 12:43:58;;;;;;;;;;;;;;;32.41;37.93;101073.75;4966272;27;98490;-56
2023/10/02 12:46:27;;;;;;;;;;;;;;;32.35;38.12;101067.00;4968142;27;98806;-62
2023/10/02 12:48:57;;;;;;;;;;;;;;;32.24;38.14;101067.00;4942772;28;113568;-62
2023/10/02 12:51:26;;;;;;;;;;;;;;;32.04;38.40;101063.06;4922154;28;100261;-62
2023/10/02 12:53:53;;;;;;;;;;;;;;;31.84;38.08;101057.09;4940499;28;98002;-62
2023/10/02 12:56:24;;;;;;;;;;;;;;;31.68;38.30;101065.06;4938750;28;98327;-55
2023/10/02 12:58:51;;;;;;;;;;;;;;;31.48;38.14;101065.44;4919997;28;98509;-62
2023/10/02 13:01:18;;;;;;;;;;;;;;;31.38;38.30;101052.28;4954548;28;119257;-62
2023/10/02 13:03:44;;;;;;;;;;;;;;;31.35;38.40;101055.06;4958641;28;98514;-55
2023/10/02 13:06:13;;;;;;;;;;;;;;;31.33;38.59;101046.31;4939484;28;98625;-56
2023/10/02 13:08:43;;;;;;;;;;;;;;;31.25;38.34;101040.69;4952461;28;99618;-62
2023/10/02 13:11:13;;;;;;;;;;;;;;;31.17;38.49;101039.09;4951190;28;100063;-62
2023/10/02 13:13:44;;;;;;;;;;;;;;;31.09;38.71;101043.06;4952174;28;98474;-62
2023/10/02 13:16:11;;;;;;;;;;;;;;;31.00;38.28;101034.28;4939050;28;99746;-61
2023/10/02 13:18:38;;;;;;;;;;;;;;;30.89;38.61;101036.22;4954617;28;98016;-62
2023/10/02 13:21:10;;;;;;;;;;;;;;;30.78;38.73;101027.84;4936729;28;98560;-61
2023/10/02 13:23:36;;;;;;;;;;;;;;;30.64;38.87;101033.31;4935686;28;98784;-55
2023/10/02 13:26:09;;;;;;;;;;;;;;;30.50;38.46;101026.53;4940092;28;98746;-56
2023/10/02 13:28:35;;;;;;;;;;;;;;;30.36;38.85;101017.31;4953902;28;102413;-62
2023/10/02 13:31:16;;;;;;;;;;;;;;;30.22;39.05;101021.63;4967877;27;98227;-62
2023/10/02 13:33:51;;;;;;;;;;;;;;;30.06;39.07;101024.66;4940185;28;98746;-62
2023/10/02 13:36:24;;;;;;;;;;;;;;;29.93;38.72;101019.78;4952565;28;98455;-62